createdAt,value
2015-03-21T13:13:40.299Z,768
2015-03-21T15:45:57.182Z,689
2015-03-21T15:46:15.651Z,744
2015-03-21T15:46:34.026Z,744
2015-03-21T15:46:52.747Z,743
2015-03-21T15:47:11.138Z,742
2015-03-21T15:47:29.591Z,741
2015-03-21T15:47:47.982Z,741
2015-03-21T15:48:06.531Z,740
2015-03-21T15:48:24.968Z,739
2015-03-21T15:48:43.531Z,739
2015-03-21T15:49:02.112Z,740
2015-03-21T15:49:20.768Z,740
2015-03-21T15:49:39.284Z,741
2015-03-21T15:49:57.768Z,742
2015-03-21T15:50:16.209Z,743
2015-03-21T15:50:34.802Z,743
2015-03-21T15:50:53.177Z,744
2015-03-21T15:51:11.569Z,744
2015-03-21T15:51:30.241Z,744
2015-03-21T15:51:48.647Z,744
2015-03-21T15:52:07.350Z,744
2015-03-21T15:52:26.009Z,745
2015-03-21T15:52:44.447Z,745
2015-03-21T15:53:02.838Z,746
2015-03-21T15:53:21.216Z,746
2015-03-21T15:53:39.622Z,746
2015-03-21T15:53:57.997Z,747
2015-03-21T15:54:16.372Z,747
2015-03-21T15:54:34.858Z,747
2015-03-21T15:54:53.296Z,748
2015-03-21T15:55:11.671Z,749
2015-03-21T15:55:30.174Z,750
2015-03-21T15:55:48.705Z,751
2015-03-21T15:56:07.283Z,752
2015-03-21T15:56:25.752Z,753
2015-03-21T15:56:44.130Z,755
2015-03-21T15:57:02.599Z,756
2015-03-21T15:57:21.020Z,758
2015-03-21T15:57:39.476Z,760
2015-03-21T15:57:57.929Z,762
2015-03-21T15:58:16.538Z,763
2015-03-21T15:58:35.132Z,764
2015-03-21T15:58:53.634Z,764
2015-03-21T15:59:12.056Z,764
2015-03-21T15:59:30.431Z,764
2015-03-21T15:59:49.168Z,764
2015-03-21T16:00:07.543Z,764
2015-03-21T16:00:25.996Z,764
2015-03-21T16:00:44.371Z,764
2015-03-21T16:01:02.779Z,764
2015-03-21T16:01:21.326Z,764
2015-03-21T16:01:39.717Z,764
2015-03-21T16:01:58.110Z,764
2015-03-21T16:02:16.688Z,763
2015-03-21T16:02:35.203Z,761
2015-03-21T16:02:53.594Z,760
2015-03-21T16:03:12.191Z,758
2015-03-21T16:03:30.894Z,756
2015-03-21T16:03:49.425Z,755
2015-03-21T16:04:07.911Z,754
2015-03-21T16:04:26.271Z,753
2015-03-21T16:04:44.661Z,752
2015-03-21T16:05:03.036Z,752
2015-03-21T16:05:21.461Z,752
2015-03-21T16:05:39.836Z,752
2015-03-21T16:05:58.211Z,751
2015-03-21T16:06:16.838Z,750
2015-03-21T16:06:35.213Z,748
2015-03-21T16:06:53.604Z,745
2015-03-21T16:07:11.979Z,743
2015-03-21T16:07:30.373Z,740
2015-03-21T16:07:48.763Z,738
2015-03-21T16:08:07.185Z,736
2015-03-21T16:08:25.625Z,733
2015-03-21T16:08:44.031Z,731
2015-03-21T16:09:02.531Z,729
2015-03-21T16:09:20.953Z,726
2015-03-21T16:09:39.331Z,724
2015-03-21T16:09:57.862Z,722
2015-03-21T16:10:16.299Z,721
2015-03-21T16:10:34.708Z,721
2015-03-21T16:10:53.067Z,721
2015-03-21T16:11:11.442Z,722
2015-03-21T16:11:29.833Z,723
2015-03-21T16:11:48.242Z,724
2015-03-21T16:12:06.758Z,726
2015-03-21T16:12:25.148Z,729
2015-03-21T16:12:43.620Z,732
2015-03-21T16:13:02.214Z,735
2015-03-21T16:13:20.901Z,738
2015-03-21T16:13:39.511Z,742
2015-03-21T16:13:57.935Z,746
2015-03-21T16:14:16.482Z,750
2015-03-21T16:14:34.842Z,754
2015-03-21T16:14:53.218Z,756
2015-03-21T16:15:11.608Z,758
2015-03-21T16:15:30.046Z,759
2015-03-21T16:15:48.421Z,760
2015-03-21T16:16:06.846Z,760
2015-03-21T16:16:25.314Z,761
2015-03-21T16:16:43.689Z,761
2015-03-21T16:17:02.130Z,761
2015-03-21T16:17:20.864Z,760
2015-03-21T16:17:39.442Z,759
2015-03-21T16:17:57.849Z,759
2015-03-21T16:18:16.429Z,758
2015-03-21T16:18:34.851Z,757
2015-03-21T16:18:53.288Z,756
2015-03-21T16:19:11.932Z,755
2015-03-21T16:19:30.526Z,755
2015-03-21T16:19:48.963Z,755
2015-03-21T16:20:07.432Z,755
2015-03-21T16:20:25.824Z,756
2015-03-21T16:20:44.231Z,756
2015-03-21T16:21:02.621Z,757
2015-03-21T16:21:20.983Z,758
2015-03-21T16:21:39.639Z,759
2015-03-21T16:21:58.295Z,761
2015-03-21T16:22:16.686Z,763
2015-03-21T16:22:35.126Z,763
2015-03-21T16:22:53.548Z,763
2015-03-21T16:23:12.142Z,763
2015-03-21T16:23:30.645Z,763
2015-03-21T16:23:49.332Z,763
2015-03-21T16:24:07.707Z,759
2015-03-21T16:24:26.223Z,755
2015-03-21T16:24:44.600Z,749
2015-03-21T16:25:02.991Z,741
2015-03-21T16:25:21.897Z,733
2015-03-21T16:25:40.508Z,725
2015-03-21T16:25:59.055Z,719
2015-03-21T16:26:17.555Z,715
2015-03-21T16:26:35.977Z,712
2015-03-21T16:26:54.371Z,711
2015-03-21T16:27:12.964Z,711
2015-03-21T16:27:31.464Z,712
2015-03-21T16:27:49.842Z,713
2015-03-21T16:28:08.280Z,713
2015-03-21T16:28:26.952Z,712
2015-03-21T16:28:45.327Z,712
2015-03-21T16:29:03.751Z,712
2015-03-21T16:29:22.141Z,712
2015-03-21T16:29:40.563Z,711
2015-03-21T16:29:59.018Z,708
2015-03-21T16:30:17.456Z,704
2015-03-21T16:30:35.831Z,699
2015-03-21T16:30:54.487Z,694
2015-03-21T16:31:12.849Z,688
2015-03-21T16:31:31.256Z,682
2015-03-21T16:31:49.631Z,677
2015-03-21T16:32:08.226Z,672
2015-03-21T16:32:26.601Z,668
2015-03-21T16:32:45.195Z,665
2015-03-21T16:33:03.570Z,663
2015-03-21T16:33:22.120Z,662
2015-03-21T16:33:40.745Z,661
2015-03-21T16:33:58.995Z,662
2015-03-21T16:34:17.576Z,663
2015-03-21T16:34:35.982Z,665
2015-03-21T16:34:54.467Z,666
2015-03-21T16:35:13.076Z,667
2015-03-21T16:35:31.546Z,668
2015-03-21T16:35:50.187Z,669
2015-03-21T16:36:08.546Z,671
2015-03-21T16:36:26.941Z,673
2015-03-21T16:36:45.394Z,676
2015-03-21T16:37:04.066Z,678
2015-03-21T16:37:22.612Z,679
2015-03-21T16:37:41.135Z,681
2015-03-21T16:37:59.823Z,682
2015-03-21T16:38:18.526Z,684
2015-03-21T16:38:36.931Z,686
2015-03-21T16:38:55.338Z,688
2015-03-21T16:39:13.728Z,689
2015-03-21T16:39:32.117Z,690
2015-03-21T16:39:50.555Z,691
2015-03-21T16:40:09.133Z,691
2015-03-21T16:40:27.523Z,691
2015-03-21T16:40:46.196Z,691
2015-03-21T16:41:04.571Z,692
2015-03-21T16:41:22.946Z,691
2015-03-21T16:41:41.336Z,690
2015-03-21T16:41:59.773Z,689
2015-03-21T16:42:18.195Z,688
2015-03-21T16:42:36.617Z,688
2015-03-21T16:42:55.034Z,687
2015-03-21T16:43:13.737Z,686
2015-03-21T16:43:32.144Z,684
2015-03-21T16:43:50.541Z,682
2015-03-21T16:44:08.947Z,679
2015-03-21T16:44:27.322Z,677
2015-03-21T16:44:45.767Z,674
2015-03-21T16:45:04.283Z,671
2015-03-21T16:45:22.704Z,667
2015-03-21T16:45:41.251Z,663
2015-03-21T16:45:59.805Z,658
2015-03-21T16:46:18.383Z,655
2015-03-21T16:46:36.821Z,651
2015-03-21T16:46:55.329Z,648
2015-03-21T16:47:13.719Z,646
2015-03-21T16:47:32.173Z,644
2015-03-21T16:47:50.782Z,643
2015-03-21T16:48:09.162Z,643
2015-03-21T16:48:27.646Z,642
2015-03-21T16:48:46.162Z,642
2015-03-21T16:49:04.727Z,644
2015-03-21T16:49:23.134Z,645
2015-03-21T16:49:41.665Z,647
2015-03-21T16:50:00.071Z,649
2015-03-21T16:50:18.607Z,650
2015-03-21T16:50:37.014Z,651
2015-03-21T16:50:55.732Z,652
2015-03-21T16:51:14.190Z,653
2015-03-21T16:51:32.877Z,654
2015-03-21T16:51:51.330Z,656
2015-03-21T16:52:09.705Z,657
2015-03-21T16:52:28.334Z,658
2015-03-21T16:52:46.709Z,658
2015-03-21T16:53:05.334Z,660
2015-03-21T16:53:23.868Z,661
2015-03-21T16:53:42.540Z,659
2015-03-21T16:54:01.275Z,656
2015-03-21T16:54:19.993Z,652
2015-03-21T16:54:38.371Z,648
2015-03-21T16:54:57.106Z,646
2015-03-21T16:55:15.481Z,644
2015-03-21T16:55:33.874Z,643
2015-03-21T16:55:51.812Z,644
2015-03-21T16:56:10.515Z,644
2015-03-21T16:56:28.890Z,645
2015-03-21T16:56:47.534Z,645
2015-03-21T16:57:06.331Z,645
2015-03-21T16:57:24.721Z,645
2015-03-21T16:57:43.442Z,644
2015-03-21T16:58:02.098Z,643
2015-03-21T16:58:20.786Z,641
2015-03-21T16:58:39.411Z,639
2015-03-21T16:58:57.804Z,637
2015-03-21T16:59:16.304Z,634
2015-03-21T16:59:34.695Z,631
2015-03-21T16:59:53.089Z,628
2015-03-21T17:00:11.464Z,625
2015-03-21T17:00:29.839Z,622
2015-03-21T17:00:48.357Z,618
2015-03-21T17:01:07.013Z,613
2015-03-21T17:01:25.482Z,609
2015-03-21T17:01:44.029Z,606
2015-03-21T17:02:02.470Z,603
2015-03-21T17:02:20.923Z,601
2015-03-21T17:02:39.423Z,599
2015-03-21T17:02:58.159Z,596
2015-03-21T17:03:16.534Z,593
2015-03-21T17:03:35.393Z,589
2015-03-21T17:03:54.050Z,584
2015-03-21T17:04:13.006Z,579
2015-03-21T17:04:31.396Z,574
2015-03-21T17:04:49.834Z,570
2015-03-21T17:05:08.305Z,566
2015-03-21T17:05:26.773Z,564
2015-03-21T17:05:45.289Z,562
2015-03-21T17:06:03.945Z,561
2015-03-21T17:06:22.355Z,560
2015-03-21T17:06:41.370Z,558
2015-03-21T17:07:00.151Z,555
2015-03-21T17:07:18.685Z,553
2015-03-21T17:07:37.138Z,550
2015-03-21T17:07:55.669Z,547
2015-03-21T17:08:14.171Z,544
2015-03-21T17:08:32.952Z,540
2015-03-21T17:08:51.359Z,537
2015-03-21T17:09:10.062Z,534
2015-03-21T17:09:28.487Z,532
2015-03-21T17:09:47.158Z,529
2015-03-21T17:10:05.533Z,526
2015-03-21T17:10:24.051Z,524
2015-03-21T17:10:42.676Z,522
2015-03-21T17:11:01.301Z,520
2015-03-21T17:11:19.678Z,518
2015-03-21T17:11:38.303Z,517
2015-03-21T17:11:56.678Z,515
2015-03-21T17:12:15.256Z,513
2015-03-21T17:12:33.665Z,511
2015-03-21T17:12:52.244Z,508
2015-03-21T17:13:10.697Z,505
2015-03-21T17:13:29.199Z,502
2015-03-21T17:13:47.652Z,499
2015-03-21T17:14:06.042Z,496
2015-03-21T17:14:24.511Z,494
2015-03-21T17:14:43.124Z,491
2015-03-21T17:15:01.655Z,487
2015-03-21T17:15:20.702Z,483
2015-03-21T17:15:39.079Z,480
2015-03-21T17:15:57.735Z,477
2015-03-21T17:16:16.454Z,474
2015-03-21T17:16:35.410Z,470
2015-03-21T17:16:53.863Z,466
2015-03-21T17:17:11.722Z,461
2015-03-21T17:17:30.316Z,457
2015-03-21T17:17:48.693Z,453
2015-03-21T17:18:07.412Z,448
2015-03-21T17:18:26.084Z,443
2015-03-21T17:18:44.820Z,438
2015-03-21T17:19:03.617Z,433
2015-03-21T17:19:22.211Z,428
2015-03-21T17:19:41.182Z,424
2015-03-21T17:19:59.917Z,420
2015-03-21T17:20:18.557Z,416
2015-03-21T17:20:37.057Z,411
2015-03-21T17:20:55.700Z,407
2015-03-21T17:21:14.216Z,402
2015-03-21T17:21:32.684Z,397
2015-03-21T17:21:51.297Z,392
2015-03-21T17:22:09.812Z,388
2015-03-21T17:22:28.219Z,383
2015-03-21T17:22:47.297Z,378
2015-03-21T17:23:05.737Z,374
2015-03-21T17:23:24.409Z,369
2015-03-21T17:23:43.347Z,363
2015-03-21T17:24:01.724Z,358
2015-03-21T17:24:20.474Z,353
2015-03-21T17:24:38.974Z,347
2015-03-21T17:24:57.678Z,342
2015-03-21T17:25:16.100Z,338
2015-03-21T17:25:34.709Z,333
2015-03-21T17:25:53.318Z,329
2015-03-21T17:26:12.243Z,325
2015-03-21T17:26:30.603Z,322
2015-03-21T17:26:49.165Z,318
2015-03-21T17:27:07.746Z,314
2015-03-21T17:27:26.231Z,310
2015-03-21T17:27:44.606Z,306
2015-03-21T17:28:03.733Z,302
2015-03-21T17:28:22.311Z,299
2015-03-21T17:28:41.030Z,295
2015-03-21T17:28:59.703Z,292
2015-03-21T17:29:18.172Z,289
2015-03-21T17:29:36.875Z,285
2015-03-21T17:29:55.703Z,282
2015-03-21T17:30:14.331Z,278
2015-03-21T17:30:32.925Z,274
2015-03-21T17:30:51.378Z,270
2015-03-21T17:31:10.037Z,266
2015-03-21T17:31:28.474Z,263
2015-03-21T17:31:47.068Z,259
2015-03-21T17:32:05.586Z,255
2015-03-21T17:32:24.086Z,251
2015-03-21T17:32:42.790Z,246
2015-03-21T17:33:01.321Z,243
2015-03-21T17:33:19.869Z,238
2015-03-21T17:33:38.572Z,235
2015-03-21T17:33:57.244Z,231
2015-03-21T17:34:15.981Z,226
2015-03-21T17:34:34.512Z,222
2015-03-21T17:34:53.200Z,217
2015-03-21T17:35:11.718Z,211
2015-03-21T17:35:30.328Z,206
2015-03-21T17:35:48.718Z,201
2015-03-21T17:36:07.328Z,196
2015-03-21T17:36:25.799Z,191
2015-03-21T17:36:44.345Z,187
2015-03-21T17:37:02.767Z,182
2015-03-21T17:37:21.426Z,178
2015-03-21T17:37:39.941Z,173
2015-03-21T17:37:58.613Z,168
2015-03-21T17:38:17.535Z,164
2015-03-21T17:38:36.257Z,159
2015-03-21T17:38:55.554Z,153
2015-03-21T17:39:14.460Z,148
2015-03-21T17:39:32.853Z,143
2015-03-21T17:39:51.728Z,138
2015-03-21T17:40:10.103Z,134
2015-03-21T17:40:28.478Z,129
2015-03-21T17:40:47.012Z,125
2015-03-21T17:41:05.809Z,121
2015-03-21T17:41:24.184Z,116
2015-03-21T17:41:42.733Z,113
2015-03-21T17:42:01.343Z,108
2015-03-21T17:42:19.796Z,104
2015-03-21T17:42:38.202Z,101
2015-03-21T17:42:56.814Z,97
2015-03-21T17:43:15.282Z,93
2015-03-21T17:43:33.907Z,89
2015-03-21T17:43:52.550Z,86
2015-03-21T17:44:11.316Z,82
2015-03-21T17:44:29.800Z,79
2015-03-21T17:44:48.316Z,76
2015-03-21T17:45:06.881Z,72
2015-03-21T17:45:25.365Z,69
2015-03-21T17:45:43.990Z,66
2015-03-21T17:46:02.649Z,64
2015-03-21T17:46:21.258Z,61
2015-03-21T17:46:39.680Z,58
2015-03-21T17:46:58.244Z,56
2015-03-21T17:47:17.198Z,53
2015-03-21T17:47:35.776Z,51
2015-03-21T17:47:54.216Z,48
2015-03-21T17:48:12.638Z,46
2015-03-21T17:48:31.060Z,44
2015-03-21T17:48:49.497Z,41
2015-03-21T17:49:08.469Z,39
2015-03-21T17:49:27.266Z,37
2015-03-21T17:49:45.829Z,35
2015-03-21T17:50:04.424Z,33
2015-03-21T17:50:22.206Z,32
2015-03-21T17:50:41.081Z,30
2015-03-21T17:50:59.471Z,28
2015-03-21T17:51:17.879Z,26
2015-03-21T17:51:36.442Z,25
2015-03-21T17:51:55.145Z,23
2015-03-21T17:52:14.054Z,22
2015-03-21T17:52:32.554Z,21
2015-03-21T17:52:51.101Z,20
2015-03-21T17:53:09.617Z,18
2015-03-21T17:53:28.307Z,17
2015-03-21T17:53:46.901Z,16
2015-03-21T17:54:05.292Z,15
2015-03-21T17:54:23.700Z,14
2015-03-21T17:54:42.356Z,13
2015-03-21T17:55:00.716Z,12
2015-03-21T17:55:19.294Z,11
2015-03-21T17:55:37.702Z,10
2015-03-21T17:55:56.436Z,9
2015-03-21T17:56:14.827Z,8
2015-03-21T17:56:33.313Z,8
2015-03-21T17:56:51.673Z,7
2015-03-21T17:57:10.438Z,6
2015-03-21T17:57:29.001Z,6
2015-03-21T17:57:47.536Z,5
2015-03-21T17:58:06.099Z,4
2015-03-21T17:58:24.880Z,4
2015-03-21T17:58:43.287Z,4
2015-03-21T17:59:01.740Z,3
2015-03-21T17:59:20.178Z,3
2015-03-21T17:59:38.537Z,3
2015-03-21T17:59:56.978Z,2
2015-03-21T18:00:15.384Z,2
2015-03-21T18:00:33.790Z,2
2015-03-21T18:00:52.511Z,1
2015-03-21T18:01:10.901Z,1
2015-03-21T18:01:29.526Z,1
2015-03-21T18:01:47.901Z,1
2015-03-21T18:02:06.311Z,0
2015-03-21T18:02:24.670Z,0
2015-03-21T18:02:43.170Z,0
2015-03-21T18:03:01.548Z,0
2015-03-21T18:03:19.970Z,0
2015-03-21T18:03:38.345Z,0
2015-03-21T18:03:57.001Z,0
2015-03-21T18:04:15.425Z,0
2015-03-21T18:04:34.003Z,0
2015-03-21T18:04:52.566Z,0
2015-03-21T18:05:10.991Z,0
2015-03-21T18:05:29.459Z,0
2015-03-21T18:05:47.850Z,0
2015-03-21T18:06:06.537Z,0
2015-03-21T18:06:24.899Z,0
2015-03-21T18:06:43.477Z,0
2015-03-21T18:07:01.868Z,0
2015-03-21T18:07:20.324Z,0
2015-03-21T18:07:38.699Z,0
2015-03-21T18:07:57.324Z,0
2015-03-21T18:08:15.746Z,0
2015-03-21T18:08:34.436Z,0
2015-03-21T18:08:52.827Z,0
2015-03-21T18:09:11.233Z,0
2015-03-21T18:09:29.610Z,0
2015-03-21T18:09:48.063Z,0
2015-03-21T18:10:06.610Z,0
2015-03-21T18:10:25.438Z,0
2015-03-21T18:10:43.831Z,0
2015-03-21T18:11:02.424Z,0
2015-03-21T18:11:20.893Z,0
2015-03-21T18:11:39.348Z,0
2015-03-21T18:11:57.755Z,0
2015-03-21T18:12:16.442Z,0
2015-03-21T18:12:35.067Z,0
2015-03-21T18:12:53.617Z,0
2015-03-21T18:13:12.086Z,0
2015-03-21T18:13:30.664Z,0
2015-03-21T18:13:49.197Z,0
2015-03-21T18:14:07.588Z,0
2015-03-21T18:14:26.166Z,0
2015-03-21T18:14:44.963Z,0
2015-03-21T18:15:03.341Z,0
2015-03-21T18:15:21.872Z,0
2015-03-21T18:15:40.591Z,0
2015-03-21T18:15:58.953Z,0
2015-03-21T18:16:17.406Z,0
2015-03-21T18:16:35.828Z,0
2015-03-21T18:16:54.203Z,0
2015-03-21T18:17:12.924Z,0
2015-03-21T18:17:31.705Z,0
2015-03-21T18:17:50.080Z,0
2015-03-21T18:18:08.785Z,0
2015-03-21T18:18:27.629Z,0
2015-03-21T18:18:46.223Z,0
2015-03-21T18:19:05.101Z,0
2015-03-21T18:19:22.819Z,0
2015-03-21T18:19:41.523Z,0
2015-03-21T18:19:59.898Z,0
2015-03-21T18:20:18.368Z,0
2015-03-21T18:20:36.759Z,0
2015-03-21T18:20:55.431Z,0
2015-03-21T18:21:13.809Z,0
2015-03-21T18:21:32.434Z,0
2015-03-21T18:21:50.793Z,0
2015-03-21T18:22:09.449Z,0
2015-03-21T18:22:27.842Z,0
2015-03-21T18:22:46.576Z,0
2015-03-21T18:23:04.951Z,0
2015-03-21T18:23:23.469Z,0
2015-03-21T18:23:41.860Z,0
2015-03-21T18:24:00.250Z,0
2015-03-21T18:24:18.738Z,0
2015-03-21T18:24:37.175Z,0
2015-03-21T18:24:55.550Z,0
2015-03-21T18:25:14.003Z,0
2015-03-21T18:25:32.396Z,0
2015-03-21T18:25:50.958Z,0
2015-03-21T18:26:09.521Z,0
2015-03-21T18:26:28.289Z,0
2015-03-21T18:26:46.664Z,0
2015-03-21T18:27:05.195Z,0
2015-03-21T18:27:23.554Z,0
2015-03-21T18:27:42.183Z,0
2015-03-21T18:28:00.558Z,0
2015-03-21T18:28:19.043Z,0
2015-03-21T18:28:37.403Z,0
2015-03-21T18:28:55.965Z,0
2015-03-21T18:29:14.450Z,0
2015-03-21T18:29:33.044Z,0
2015-03-21T18:29:51.484Z,0
2015-03-21T18:30:09.922Z,0
2015-03-21T18:30:28.297Z,0
2015-03-21T18:30:47.095Z,0
2015-03-21T18:31:05.799Z,0
2015-03-21T18:31:24.174Z,0
2015-03-21T18:31:42.845Z,0
2015-03-21T18:32:01.380Z,0
2015-03-21T18:32:19.802Z,0
2015-03-21T18:32:38.177Z,0
2015-03-21T18:32:56.991Z,0
2015-03-21T18:33:15.616Z,0
2015-03-21T18:33:34.460Z,0
2015-03-21T18:33:52.897Z,0
2015-03-21T18:34:11.275Z,0
2015-03-21T18:34:29.728Z,0
2015-03-21T18:34:48.119Z,0
2015-03-21T18:35:06.575Z,0
2015-03-21T18:35:25.138Z,0
2015-03-21T18:35:43.575Z,0
2015-03-21T18:36:01.950Z,0
2015-03-21T18:36:20.405Z,0
2015-03-21T18:36:38.874Z,0
2015-03-21T18:36:57.405Z,0
2015-03-21T18:37:15.830Z,0
2015-03-21T18:37:34.643Z,0
2015-03-21T18:37:53.018Z,0
2015-03-21T18:38:11.440Z,0
2015-03-21T18:38:29.880Z,0
2015-03-21T18:38:48.255Z,0
2015-03-21T18:39:06.786Z,0
2015-03-21T18:39:25.287Z,0
2015-03-21T18:39:43.834Z,0
2015-03-21T18:40:02.256Z,0
2015-03-21T18:40:20.928Z,0
2015-03-21T18:40:39.400Z,0
2015-03-21T18:40:57.900Z,0
2015-03-21T18:41:16.353Z,0
2015-03-21T18:41:34.730Z,0
2015-03-21T18:41:53.839Z,0
2015-03-21T18:42:12.620Z,0
2015-03-21T18:42:30.980Z,0
2015-03-21T18:42:49.358Z,0
2015-03-21T18:43:07.764Z,0
2015-03-21T18:43:26.155Z,0
2015-03-21T18:43:44.516Z,0
2015-03-21T18:44:03.125Z,0
2015-03-21T18:44:21.500Z,0
2015-03-21T18:44:39.985Z,0
2015-03-21T18:44:58.363Z,0
2015-03-21T18:45:16.769Z,0
2015-03-21T18:45:35.144Z,0
2015-03-21T18:45:53.552Z,0
2015-03-21T18:46:11.912Z,0
2015-03-21T18:46:30.459Z,0
2015-03-21T18:46:48.959Z,0
2015-03-21T18:47:07.368Z,0
2015-03-21T18:47:25.743Z,0
2015-03-21T18:47:44.368Z,0
2015-03-21T18:48:02.745Z,0
2015-03-21T18:48:21.167Z,0
2015-03-21T18:48:39.557Z,0
2015-03-21T18:48:57.964Z,0
2015-03-21T18:49:16.482Z,0
2015-03-21T18:49:34.857Z,0
2015-03-21T18:49:53.310Z,0
2015-03-21T18:50:11.687Z,0
2015-03-21T18:50:30.062Z,0
2015-03-21T18:50:48.687Z,0
2015-03-21T18:51:07.062Z,0
2015-03-21T18:51:25.565Z,0
2015-03-21T18:51:44.159Z,0
2015-03-21T18:52:02.737Z,0
2015-03-21T18:52:21.333Z,0
2015-03-21T18:52:39.786Z,0
2015-03-21T18:52:58.192Z,0
2015-03-21T18:53:16.645Z,0
2015-03-21T18:53:35.430Z,0
2015-03-21T18:53:53.836Z,0
2015-03-21T18:54:12.242Z,0
2015-03-21T18:54:31.197Z,0
2015-03-21T18:54:49.572Z,0
2015-03-21T18:55:08.104Z,0
2015-03-21T18:55:26.635Z,0
2015-03-21T18:55:45.060Z,0
2015-03-21T18:56:03.638Z,0
2015-03-21T18:56:22.232Z,0
2015-03-21T18:56:40.609Z,0
2015-03-21T18:56:59.077Z,0
2015-03-21T18:57:17.452Z,0
2015-03-21T18:57:35.874Z,0
2015-03-21T18:57:54.346Z,0
2015-03-21T18:58:13.174Z,0
2015-03-21T18:58:31.737Z,0
2015-03-21T18:58:50.301Z,0
2015-03-21T18:59:08.785Z,0
2015-03-21T18:59:27.442Z,0
2015-03-21T18:59:45.817Z,0
2015-03-21T19:00:04.413Z,0
2015-03-21T19:00:22.976Z,0
2015-03-21T19:00:41.367Z,0
2015-03-21T19:00:59.870Z,0
2015-03-21T19:01:18.323Z,0
2015-03-21T19:01:36.870Z,0
2015-03-21T19:01:55.291Z,0
2015-03-21T19:02:13.715Z,0
2015-03-21T19:02:32.090Z,0
2015-03-21T19:02:50.497Z,0
2015-03-21T19:03:08.858Z,0
2015-03-21T19:03:27.311Z,0
2015-03-21T19:03:45.905Z,0
2015-03-21T19:04:04.530Z,0
2015-03-21T19:04:23.094Z,0
2015-03-21T19:04:41.469Z,0
2015-03-21T19:05:00.047Z,0
2015-03-21T19:05:18.441Z,0
2015-03-21T19:05:36.925Z,0
2015-03-21T19:05:55.300Z,0
2015-03-21T19:06:13.678Z,0
2015-03-21T19:06:32.053Z,0
2015-03-21T19:06:50.553Z,0
2015-03-21T19:07:08.928Z,0
2015-03-21T19:07:27.414Z,0
2015-03-21T19:07:45.804Z,0
2015-03-21T19:08:04.414Z,0
2015-03-21T19:08:22.792Z,0
2015-03-21T19:08:41.167Z,0
2015-03-21T19:08:59.667Z,0
2015-03-21T19:09:18.044Z,0
2015-03-21T19:09:36.544Z,0
2015-03-21T19:09:54.919Z,0
2015-03-21T19:10:13.280Z,0
2015-03-21T19:10:31.702Z,0
2015-03-21T19:10:50.124Z,0
2015-03-21T19:11:08.499Z,0
2015-03-21T19:11:26.907Z,0
2015-03-21T19:11:45.501Z,0
2015-03-21T19:12:03.954Z,0
2015-03-21T19:12:22.363Z,0
2015-03-21T19:12:40.926Z,0
2015-03-21T19:12:59.285Z,0
2015-03-21T19:13:17.788Z,0
2015-03-21T19:13:36.335Z,0
2015-03-21T19:13:54.710Z,0
2015-03-21T19:14:13.210Z,0
2015-03-21T19:14:31.570Z,0
2015-03-21T19:14:50.164Z,0
2015-03-21T19:15:08.727Z,0
2015-03-21T19:15:27.480Z,0
2015-03-21T19:15:46.120Z,0
2015-03-21T19:16:04.698Z,0
2015-03-21T19:16:23.138Z,0
2015-03-21T19:16:41.857Z,0
2015-03-21T19:17:00.310Z,0
2015-03-21T19:17:21.891Z,0
2015-03-21T19:17:40.469Z,0
2015-03-21T19:17:58.969Z,0
2015-03-21T19:18:17.750Z,0
2015-03-21T19:18:36.238Z,0
2015-03-21T19:18:54.941Z,0
2015-03-21T19:19:13.535Z,0
2015-03-21T19:19:32.583Z,0
2015-03-21T19:19:51.380Z,0
2015-03-21T19:20:10.177Z,0
2015-03-21T19:20:28.789Z,0
2015-03-21T19:20:47.789Z,0
2015-03-21T19:21:06.820Z,0
2015-03-21T19:21:25.698Z,0
2015-03-21T19:21:44.479Z,0
2015-03-21T19:22:03.245Z,0
2015-03-21T19:22:21.698Z,0
2015-03-21T19:22:40.074Z,0
2015-03-21T19:22:58.683Z,0
2015-03-21T19:23:17.230Z,0
2015-03-21T19:23:36.124Z,0
2015-03-21T19:23:54.717Z,0
2015-03-21T19:24:13.217Z,0
2015-03-21T19:24:31.688Z,0
2015-03-21T19:24:50.079Z,0
2015-03-21T19:25:08.641Z,0
2015-03-21T19:25:27.032Z,0
2015-03-21T19:25:45.612Z,0
2015-03-21T19:26:04.284Z,0
2015-03-21T19:26:22.925Z,0
2015-03-21T19:26:41.443Z,0
2015-03-21T19:26:59.834Z,0
2015-03-21T19:27:18.209Z,0
2015-03-21T19:27:36.961Z,0
2015-03-21T19:27:55.726Z,0
2015-03-21T19:28:14.148Z,0
2015-03-21T19:28:33.026Z,0
2015-03-21T19:28:51.651Z,0
2015-03-21T19:29:10.229Z,0
2015-03-21T19:29:28.698Z,0
2015-03-21T19:29:47.622Z,0
2015-03-21T19:30:06.231Z,0
2015-03-21T19:30:24.841Z,0
2015-03-21T19:30:43.468Z,0
2015-03-21T19:31:01.968Z,0
2015-03-21T19:31:20.780Z,0
2015-03-21T19:31:39.501Z,0
2015-03-21T19:31:58.110Z,0
2015-03-21T19:32:16.751Z,0
2015-03-21T19:32:35.270Z,0
2015-03-21T19:32:53.707Z,0
2015-03-21T19:33:12.160Z,0
2015-03-21T19:33:30.520Z,0
2015-03-21T19:33:49.070Z,0
2015-03-21T19:34:07.554Z,0
2015-03-21T19:34:25.991Z,0
2015-03-21T19:34:45.008Z,0
2015-03-21T19:35:03.586Z,0
2015-03-21T19:35:22.399Z,0
2015-03-21T19:35:40.870Z,0
2015-03-21T19:35:59.683Z,0
2015-03-21T19:36:18.355Z,0
2015-03-21T19:36:37.042Z,0
2015-03-21T19:36:55.435Z,0
2015-03-21T19:37:14.169Z,0
2015-03-21T19:37:32.638Z,0
2015-03-21T19:37:51.375Z,0
2015-03-21T19:38:09.875Z,0
2015-03-21T19:38:28.594Z,0
2015-03-21T19:38:47.018Z,0
2015-03-21T19:39:05.565Z,0
2015-03-21T19:39:23.956Z,0
2015-03-21T19:39:42.489Z,0
2015-03-21T19:40:00.942Z,0
2015-03-21T19:40:19.708Z,0
2015-03-21T19:40:38.598Z,0
2015-03-21T19:40:57.351Z,0
2015-03-21T19:41:15.742Z,0
2015-03-21T19:41:34.461Z,0
2015-03-21T19:41:53.103Z,0
2015-03-21T19:42:11.806Z,0
2015-03-21T19:42:30.228Z,0
2015-03-21T19:42:48.809Z,0
2015-03-21T19:43:07.434Z,0
2015-03-21T19:43:26.294Z,0
2015-03-21T19:43:44.934Z,0
2015-03-21T19:44:03.468Z,0
2015-03-21T19:44:22.218Z,0
2015-03-21T19:44:40.671Z,0
2015-03-21T19:44:59.626Z,0
2015-03-21T19:45:18.532Z,0
2015-03-21T19:45:37.048Z,0
2015-03-21T19:45:55.488Z,0
2015-03-21T19:46:14.363Z,0
2015-03-21T19:46:32.973Z,0
2015-03-21T19:46:51.740Z,0
2015-03-21T19:47:10.521Z,0
2015-03-21T19:47:28.959Z,0
2015-03-21T19:47:47.771Z,0
2015-03-21T19:48:06.321Z,0
2015-03-21T19:48:24.853Z,0
2015-03-21T19:48:43.493Z,0
2015-03-21T19:49:01.886Z,0
2015-03-21T19:49:20.839Z,0
2015-03-21T19:49:39.261Z,0
2015-03-21T19:49:57.763Z,0
2015-03-21T19:50:16.419Z,0
2015-03-21T19:50:34.841Z,0
2015-03-21T19:50:53.671Z,0
2015-03-21T19:51:12.093Z,0
2015-03-21T19:51:30.874Z,0
2015-03-21T19:51:49.390Z,0
2015-03-21T19:52:08.408Z,0
2015-03-21T19:52:27.330Z,0
2015-03-21T19:52:45.783Z,0
2015-03-21T19:53:04.535Z,0
2015-03-21T19:53:23.129Z,0
2015-03-21T19:53:41.582Z,0
2015-03-21T19:53:59.959Z,0
2015-03-21T19:54:18.381Z,0
2015-03-21T19:54:36.819Z,0
2015-03-21T19:54:55.241Z,0
2015-03-21T19:55:13.711Z,0
2015-03-21T19:55:32.071Z,0
2015-03-21T19:55:50.664Z,0
2015-03-21T19:56:09.042Z,0
2015-03-21T19:56:27.464Z,0
2015-03-21T19:56:46.183Z,0
2015-03-21T19:57:04.576Z,0
2015-03-21T19:57:23.341Z,0
2015-03-21T19:57:42.076Z,0
2015-03-21T19:58:00.813Z,0
2015-03-21T19:58:19.547Z,0
2015-03-21T19:58:38.297Z,0
2015-03-21T19:58:56.922Z,0
2015-03-21T19:59:15.674Z,0
2015-03-21T19:59:34.159Z,0
2015-03-21T19:59:52.581Z,0
2015-03-21T20:00:10.989Z,0
2015-03-21T20:00:29.676Z,0
2015-03-21T20:00:48.364Z,0
2015-03-21T20:01:07.054Z,0
2015-03-21T20:01:25.679Z,0
2015-03-21T20:01:44.054Z,0
2015-03-21T20:02:02.820Z,0
2015-03-21T20:02:21.619Z,0
2015-03-21T20:02:40.010Z,0
2015-03-21T20:02:58.525Z,0
2015-03-21T20:03:17.215Z,0
2015-03-21T20:03:35.668Z,0
2015-03-21T20:03:54.074Z,0
2015-03-21T20:04:12.467Z,0
2015-03-21T20:04:31.107Z,0
2015-03-21T20:04:49.529Z,0
2015-03-21T20:05:08.235Z,0
2015-03-21T20:05:26.845Z,0
2015-03-21T20:05:45.548Z,0
2015-03-21T20:06:04.142Z,0
2015-03-21T20:06:47.878Z,0
2015-03-21T20:07:06.300Z,0
2015-03-21T20:07:24.755Z,0
2015-03-21T20:07:43.411Z,0
2015-03-21T20:08:01.786Z,0
2015-03-21T20:08:20.258Z,0
2015-03-21T20:08:38.617Z,0
2015-03-21T20:08:57.367Z,0
2015-03-21T20:09:15.916Z,0
2015-03-21T20:09:34.354Z,0
2015-03-21T20:09:52.947Z,0
2015-03-21T20:10:11.635Z,0
2015-03-21T20:10:30.294Z,0
2015-03-21T20:10:49.279Z,0